sensor_id;sensor_type;location;lat;lon;timestamp;P1;durP1;ratioP1;P2;durP2;ratioP2
9948;SDS011;5013;51.840;8.276;2023-02-26T00:02:06;7.50;;;4.97;;
9948;SDS011;5013;51.840;8.276;2023-02-26T00:04:34;8.23;;;4.60;;
9948;SDS011;5013;51.840;8.276;2023-02-26T00:07:00;6.33;;;4.60;;
9948;SDS011;5013;51.840;8.276;2023-02-26T00:09:26;5.30;;;3.80;;
9948;SDS011;5013;51.840;8.276;2023-02-26T00:11:51;4.67;;;3.63;;
9948;SDS011;5013;51.840;8.276;2023-02-26T00:14:17;8.30;;;3.50;;
9948;SDS011;5013;51.840;8.276;2023-02-26T00:16:45;2.87;;;2.77;;
9948;SDS011;5013;51.840;8.276;2023-02-26T00:19:15;7.47;;;3.37;;
9948;SDS011;5013;51.840;8.276;2023-02-26T00:21:41;3.50;;;2.73;;
9948;SDS011;5013;51.840;8.276;2023-02-26T00:24:06;4.57;;;2.60;;
9948;SDS011;5013;51.840;8.276;2023-02-26T00:26:32;8.00;;;3.30;;
9948;SDS011;5013;51.840;8.276;2023-02-26T00:28:59;10.60;;;3.50;;
9948;SDS011;5013;51.840;8.276;2023-02-26T00:31:25;5.23;;;2.73;;
9948;SDS011;5013;51.840;8.276;2023-02-26T00:33:54;3.33;;;3.03;;
9948;SDS011;5013;51.840;8.276;2023-02-26T00:36:36;5.83;;;3.03;;
9948;SDS011;5013;51.840;8.276;2023-02-26T00:42:01;4.90;;;3.07;;
9948;SDS011;5013;51.840;8.276;2023-02-26T00:44:28;7.43;;;3.23;;
9948;SDS011;5013;51.840;8.276;2023-02-26T00:47:02;6.63;;;3.03;;
9948;SDS011;5013;51.840;8.276;2023-02-26T00:52:13;3.50;;;3.00;;
9948;SDS011;5013;51.840;8.276;2023-02-26T00:54:52;6.27;;;3.43;;
9948;SDS011;5013;51.840;8.276;2023-02-26T00:57:18;5.93;;;3.03;;
9948;SDS011;5013;51.840;8.276;2023-02-26T00:59:43;4.23;;;3.07;;
9948;SDS011;5013;51.840;8.276;2023-02-26T01:02:09;7.67;;;3.33;;
9948;SDS011;5013;51.840;8.276;2023-02-26T01:04:34;3.30;;;2.60;;
9948;SDS011;5013;51.840;8.276;2023-02-26T01:07:00;4.70;;;2.90;;
9948;SDS011;5013;51.840;8.276;2023-02-26T01:09:30;6.43;;;2.90;;
9948;SDS011;5013;51.840;8.276;2023-02-26T01:12:01;6.63;;;3.23;;
9948;SDS011;5013;51.840;8.276;2023-02-26T01:14:30;7.77;;;3.07;;
9948;SDS011;5013;51.840;8.276;2023-02-26T01:17:01;4.80;;;2.67;;
9948;SDS011;5013;51.840;8.276;2023-02-26T01:22:09;5.07;;;2.80;;
9948;SDS011;5013;51.840;8.276;2023-02-26T01:24:41;4.47;;;2.50;;
9948;SDS011;5013;51.840;8.276;2023-02-26T01:27:07;4.33;;;2.63;;
9948;SDS011;5013;51.840;8.276;2023-02-26T01:29:33;5.30;;;2.40;;
9948;SDS011;5013;51.840;8.276;2023-02-26T01:32:05;8.20;;;2.80;;
9948;SDS011;5013;51.840;8.276;2023-02-26T01:34:46;5.97;;;2.70;;
9948;SDS011;5013;51.840;8.276;2023-02-26T01:43:05;4.73;;;2.70;;
9948;SDS011;5013;51.840;8.276;2023-02-26T01:45:38;6.33;;;3.03;;
9948;SDS011;5013;51.840;8.276;2023-02-26T01:48:20;14.83;;;5.50;;
9948;SDS011;5013;51.840;8.276;2023-02-26T01:51:08;7.97;;;4.67;;
9948;SDS011;5013;51.840;8.276;2023-02-26T01:53:33;7.53;;;4.33;;
9948;SDS011;5013;51.840;8.276;2023-02-26T01:56:00;9.17;;;3.57;;
9948;SDS011;5013;51.840;8.276;2023-02-26T01:58:31;8.87;;;4.37;;
9948;SDS011;5013;51.840;8.276;2023-02-26T02:00:59;6.80;;;4.33;;
9948;SDS011;5013;51.840;8.276;2023-02-26T02:03:26;11.43;;;3.53;;
9948;SDS011;5013;51.840;8.276;2023-02-26T02:05:55;6.43;;;2.80;;
9948;SDS011;5013;51.840;8.276;2023-02-26T02:08:27;2.83;;;2.00;;
9948;SDS011;5013;51.840;8.276;2023-02-26T02:10:54;6.43;;;2.20;;
9948;SDS011;5013;51.840;8.276;2023-02-26T02:18:34;5.37;;;2.50;;
9948;SDS011;5013;51.840;8.276;2023-02-26T02:23:42;4.53;;;2.47;;
9948;SDS011;5013;51.840;8.276;2023-02-26T02:26:34;7.03;;;2.47;;
9948;SDS011;5013;51.840;8.276;2023-02-26T02:34:40;5.33;;;2.40;;
9948;SDS011;5013;51.840;8.276;2023-02-26T02:37:20;5.63;;;1.90;;
9948;SDS011;5013;51.840;8.276;2023-02-26T02:42:31;3.73;;;1.70;;
9948;SDS011;5013;51.840;8.276;2023-02-26T02:44:59;5.33;;;2.00;;
9948;SDS011;5013;51.840;8.276;2023-02-26T02:47:36;5.57;;;1.90;;
9948;SDS011;5013;51.840;8.276;2023-02-26T02:50:06;4.10;;;2.20;;
9948;SDS011;5013;51.840;8.276;2023-02-26T02:52:42;3.57;;;2.03;;
9948;SDS011;5013;51.840;8.276;2023-02-26T02:55:15;4.80;;;1.97;;
9948;SDS011;5013;51.840;8.276;2023-02-26T02:58:29;3.43;;;1.77;;
9948;SDS011;5013;51.840;8.276;2023-02-26T03:00:42;9.60;;;2.20;;
9948;SDS011;5013;51.840;8.276;2023-02-26T03:05:50;6.73;;;1.80;;
9948;SDS011;5013;51.840;8.276;2023-02-26T03:08:17;3.90;;;1.77;;
9948;SDS011;5013;51.840;8.276;2023-02-26T03:10:46;3.83;;;1.90;;
9948;SDS011;5013;51.840;8.276;2023-02-26T03:13:16;2.30;;;1.77;;
9948;SDS011;5013;51.840;8.276;2023-02-26T03:21:45;9.40;;;2.27;;
9948;SDS011;5013;51.840;8.276;2023-02-26T03:24:26;3.43;;;2.47;;
9948;SDS011;5013;51.840;8.276;2023-02-26T03:27:02;4.83;;;2.43;;
9948;SDS011;5013;51.840;8.276;2023-02-26T03:29:34;5.87;;;2.10;;
9948;SDS011;5013;51.840;8.276;2023-02-26T03:32:31;6.07;;;2.07;;
9948;SDS011;5013;51.840;8.276;2023-02-26T03:35:12;2.33;;;2.10;;
9948;SDS011;5013;51.840;8.276;2023-02-26T03:37:43;2.57;;;2.07;;
9948;SDS011;5013;51.840;8.276;2023-02-26T03:40:17;3.33;;;2.00;;
9948;SDS011;5013;51.840;8.276;2023-02-26T03:42:54;5.70;;;2.23;;
9948;SDS011;5013;51.840;8.276;2023-02-26T03:45:29;5.23;;;1.90;;
9948;SDS011;5013;51.840;8.276;2023-02-26T03:47:58;3.57;;;2.13;;
9948;SDS011;5013;51.840;8.276;2023-02-26T03:50:31;6.17;;;2.27;;
9948;SDS011;5013;51.840;8.276;2023-02-26T03:53:10;3.97;;;2.10;;
9948;SDS011;5013;51.840;8.276;2023-02-26T03:56:41;4.23;;;2.07;;
9948;SDS011;5013;51.840;8.276;2023-02-26T03:58:41;2.50;;;2.10;;
9948;SDS011;5013;51.840;8.276;2023-02-26T04:01:09;7.13;;;2.20;;
9948;SDS011;5013;51.840;8.276;2023-02-26T04:03:48;5.90;;;2.07;;
9948;SDS011;5013;51.840;8.276;2023-02-26T04:06:30;5.60;;;2.00;;
9948;SDS011;5013;51.840;8.276;2023-02-26T04:08:58;6.23;;;2.40;;
9948;SDS011;5013;51.840;8.276;2023-02-26T04:11:25;2.80;;;1.97;;
9948;SDS011;5013;51.840;8.276;2023-02-26T04:13:53;4.30;;;1.73;;
9948;SDS011;5013;51.840;8.276;2023-02-26T04:16:19;4.63;;;2.00;;
9948;SDS011;5013;51.840;8.276;2023-02-26T04:18:44;5.90;;;1.90;;
9948;SDS011;5013;51.840;8.276;2023-02-26T04:21:13;6.93;;;2.07;;
9948;SDS011;5013;51.840;8.276;2023-02-26T04:23:41;4.97;;;2.00;;
9948;SDS011;5013;51.840;8.276;2023-02-26T04:26:06;6.43;;;2.40;;
9948;SDS011;5013;51.840;8.276;2023-02-26T04:28:32;3.37;;;1.80;;
9948;SDS011;5013;51.840;8.276;2023-02-26T04:30:59;3.83;;;1.93;;
9948;SDS011;5013;51.840;8.276;2023-02-26T04:33:24;5.83;;;2.17;;
9948;SDS011;5013;51.840;8.276;2023-02-26T04:35:51;6.77;;;2.20;;
9948;SDS011;5013;51.840;8.276;2023-02-26T04:38:16;3.73;;;1.87;;
9948;SDS011;5013;51.840;8.276;2023-02-26T04:40:42;2.73;;;2.00;;
9948;SDS011;5013;51.840;8.276;2023-02-26T04:43:07;3.10;;;2.27;;
9948;SDS011;5013;51.840;8.276;2023-02-26T04:45:33;3.20;;;2.03;;
9948;SDS011;5013;51.840;8.276;2023-02-26T04:47:59;5.00;;;2.27;;
9948;SDS011;5013;51.840;8.276;2023-02-26T04:50:24;5.53;;;2.47;;
9948;SDS011;5013;51.840;8.276;2023-02-26T04:52:50;4.33;;;1.90;;
9948;SDS011;5013;51.840;8.276;2023-02-26T04:55:16;5.70;;;2.80;;
9948;SDS011;5013;51.840;8.276;2023-02-26T04:57:41;11.77;;;2.40;;
9948;SDS011;5013;51.840;8.276;2023-02-26T05:00:07;5.03;;;2.23;;
9948;SDS011;5013;51.840;8.276;2023-02-26T05:02:33;8.23;;;2.83;;
9948;SDS011;5013;51.840;8.276;2023-02-26T05:04:58;4.50;;;2.10;;
9948;SDS011;5013;51.840;8.276;2023-02-26T05:07:24;3.70;;;2.50;;
9948;SDS011;5013;51.840;8.276;2023-02-26T05:09:50;12.03;;;2.60;;
9948;SDS011;5013;51.840;8.276;2023-02-26T05:12:16;6.50;;;2.13;;
9948;SDS011;5013;51.840;8.276;2023-02-26T05:14:42;3.67;;;2.33;;
9948;SDS011;5013;51.840;8.276;2023-02-26T05:17:07;7.47;;;2.57;;
9948;SDS011;5013;51.840;8.276;2023-02-26T05:19:33;4.23;;;2.30;;
9948;SDS011;5013;51.840;8.276;2023-02-26T05:21:59;8.80;;;2.63;;
9948;SDS011;5013;51.840;8.276;2023-02-26T05:24:24;4.40;;;2.37;;
9948;SDS011;5013;51.840;8.276;2023-02-26T05:26:50;4.63;;;2.50;;
9948;SDS011;5013;51.840;8.276;2023-02-26T05:29:15;6.57;;;2.40;;
9948;SDS011;5013;51.840;8.276;2023-02-26T05:31:41;3.87;;;2.20;;
9948;SDS011;5013;51.840;8.276;2023-02-26T05:34:06;4.00;;;2.13;;
9948;SDS011;5013;51.840;8.276;2023-02-26T05:36:32;8.10;;;2.27;;
9948;SDS011;5013;51.840;8.276;2023-02-26T05:38:57;2.80;;;1.97;;
9948;SDS011;5013;51.840;8.276;2023-02-26T05:41:23;3.67;;;1.80;;
9948;SDS011;5013;51.840;8.276;2023-02-26T05:43:49;3.37;;;1.93;;
9948;SDS011;5013;51.840;8.276;2023-02-26T05:46:14;5.40;;;2.00;;
9948;SDS011;5013;51.840;8.276;2023-02-26T05:48:40;8.27;;;2.20;;
9948;SDS011;5013;51.840;8.276;2023-02-26T05:51:05;4.47;;;1.90;;
9948;SDS011;5013;51.840;8.276;2023-02-26T05:53:31;7.37;;;2.10;;
9948;SDS011;5013;51.840;8.276;2023-02-26T05:55:56;4.33;;;2.20;;
9948;SDS011;5013;51.840;8.276;2023-02-26T05:58:22;3.97;;;1.80;;
9948;SDS011;5013;51.840;8.276;2023-02-26T06:00:48;7.47;;;2.60;;
9948;SDS011;5013;51.840;8.276;2023-02-26T06:03:13;6.67;;;2.13;;
9948;SDS011;5013;51.840;8.276;2023-02-26T06:05:39;3.37;;;2.07;;
9948;SDS011;5013;51.840;8.276;2023-02-26T06:08:04;5.63;;;2.03;;
9948;SDS011;5013;51.840;8.276;2023-02-26T06:10:31;4.47;;;1.70;;
9948;SDS011;5013;51.840;8.276;2023-02-26T06:12:56;4.90;;;2.67;;
9948;SDS011;5013;51.840;8.276;2023-02-26T06:15:22;5.40;;;2.30;;
9948;SDS011;5013;51.840;8.276;2023-02-26T06:17:48;4.50;;;2.00;;
9948;SDS011;5013;51.840;8.276;2023-02-26T06:20:14;5.33;;;2.07;;
9948;SDS011;5013;51.840;8.276;2023-02-26T06:22:40;7.30;;;2.10;;
9948;SDS011;5013;51.840;8.276;2023-02-26T06:25:05;3.40;;;1.90;;
9948;SDS011;5013;51.840;8.276;2023-02-26T06:27:31;4.20;;;1.90;;
9948;SDS011;5013;51.840;8.276;2023-02-26T06:29:57;2.23;;;1.63;;
9948;SDS011;5013;51.840;8.276;2023-02-26T06:32:22;3.80;;;2.10;;
9948;SDS011;5013;51.840;8.276;2023-02-26T06:34:48;5.40;;;1.90;;
9948;SDS011;5013;51.840;8.276;2023-02-26T06:37:14;7.90;;;2.40;;
9948;SDS011;5013;51.840;8.276;2023-02-26T06:39:40;3.43;;;1.90;;
9948;SDS011;5013;51.840;8.276;2023-02-26T06:42:06;2.73;;;1.80;;
9948;SDS011;5013;51.840;8.276;2023-02-26T06:44:31;5.47;;;1.90;;
9948;SDS011;5013;51.840;8.276;2023-02-26T06:46:57;5.53;;;2.00;;
9948;SDS011;5013;51.840;8.276;2023-02-26T06:49:22;6.90;;;2.40;;
9948;SDS011;5013;51.840;8.276;2023-02-26T06:51:48;2.87;;;1.87;;
9948;SDS011;5013;51.840;8.276;2023-02-26T06:54:14;3.57;;;2.07;;
9948;SDS011;5013;51.840;8.276;2023-02-26T06:56:39;7.13;;;2.40;;
9948;SDS011;5013;51.840;8.276;2023-02-26T06:59:05;7.60;;;2.47;;
9948;SDS011;5013;51.840;8.276;2023-02-26T07:01:30;2.93;;;2.00;;
9948;SDS011;5013;51.840;8.276;2023-02-26T07:03:56;9.07;;;2.17;;
9948;SDS011;5013;51.840;8.276;2023-02-26T07:06:22;4.93;;;2.13;;
9948;SDS011;5013;51.840;8.276;2023-02-26T07:08:49;2.80;;;1.87;;
9948;SDS011;5013;51.840;8.276;2023-02-26T07:11:14;2.83;;;1.87;;
9948;SDS011;5013;51.840;8.276;2023-02-26T07:13:40;4.00;;;1.83;;
9948;SDS011;5013;51.840;8.276;2023-02-26T07:16:05;2.97;;;2.00;;
9948;SDS011;5013;51.840;8.276;2023-02-26T07:18:35;3.47;;;1.93;;
9948;SDS011;5013;51.840;8.276;2023-02-26T07:21:02;3.50;;;2.00;;
9948;SDS011;5013;51.840;8.276;2023-02-26T07:23:28;5.17;;;1.80;;
9948;SDS011;5013;51.840;8.276;2023-02-26T07:25:54;3.37;;;2.73;;
9948;SDS011;5013;51.840;8.276;2023-02-26T07:28:20;3.97;;;3.60;;
9948;SDS011;5013;51.840;8.276;2023-02-26T07:30:46;4.10;;;2.60;;
9948;SDS011;5013;51.840;8.276;2023-02-26T07:33:12;4.20;;;2.77;;
9948;SDS011;5013;51.840;8.276;2023-02-26T07:35:37;6.20;;;2.90;;
9948;SDS011;5013;51.840;8.276;2023-02-26T07:38:03;3.80;;;2.90;;
9948;SDS011;5013;51.840;8.276;2023-02-26T07:40:30;7.83;;;2.60;;
9948;SDS011;5013;51.840;8.276;2023-02-26T07:42:56;4.30;;;2.30;;
9948;SDS011;5013;51.840;8.276;2023-02-26T07:45:22;5.87;;;2.30;;
9948;SDS011;5013;51.840;8.276;2023-02-26T07:47:48;9.13;;;2.43;;
9948;SDS011;5013;51.840;8.276;2023-02-26T07:50:18;5.03;;;2.40;;
9948;SDS011;5013;51.840;8.276;2023-02-26T07:52:45;6.47;;;2.37;;
9948;SDS011;5013;51.840;8.276;2023-02-26T07:55:11;6.60;;;2.10;;
9948;SDS011;5013;51.840;8.276;2023-02-26T07:57:37;5.00;;;3.00;;
9948;SDS011;5013;51.840;8.276;2023-02-26T08:00:02;7.47;;;2.43;;
9948;SDS011;5013;51.840;8.276;2023-02-26T08:02:29;2.10;;;1.90;;
9948;SDS011;5013;51.840;8.276;2023-02-26T08:04:55;7.80;;;2.23;;
9948;SDS011;5013;51.840;8.276;2023-02-26T08:07:21;4.37;;;2.33;;
9948;SDS011;5013;51.840;8.276;2023-02-26T08:09:47;6.67;;;2.00;;
9948;SDS011;5013;51.840;8.276;2023-02-26T08:12:12;6.93;;;2.30;;
9948;SDS011;5013;51.840;8.276;2023-02-26T08:14:38;5.33;;;2.00;;
9948;SDS011;5013;51.840;8.276;2023-02-26T08:17:05;5.73;;;2.20;;
9948;SDS011;5013;51.840;8.276;2023-02-26T08:19:32;4.00;;;2.00;;
9948;SDS011;5013;51.840;8.276;2023-02-26T08:21:58;4.13;;;2.00;;
9948;SDS011;5013;51.840;8.276;2023-02-26T08:24:23;5.03;;;2.23;;
9948;SDS011;5013;51.840;8.276;2023-02-26T08:26:49;2.77;;;2.03;;
9948;SDS011;5013;51.840;8.276;2023-02-26T08:29:14;2.70;;;1.83;;
9948;SDS011;5013;51.840;8.276;2023-02-26T08:31:40;2.67;;;1.70;;
9948;SDS011;5013;51.840;8.276;2023-02-26T08:34:05;5.20;;;2.37;;
9948;SDS011;5013;51.840;8.276;2023-02-26T08:36:31;3.20;;;1.70;;
9948;SDS011;5013;51.840;8.276;2023-02-26T08:38:57;4.70;;;1.87;;
9948;SDS011;5013;51.840;8.276;2023-02-26T08:41:23;4.70;;;2.00;;
9948;SDS011;5013;51.840;8.276;2023-02-26T08:43:51;2.30;;;1.80;;
9948;SDS011;5013;51.840;8.276;2023-02-26T08:46:17;3.27;;;2.03;;
9948;SDS011;5013;51.840;8.276;2023-02-26T08:48:42;5.70;;;2.13;;
9948;SDS011;5013;51.840;8.276;2023-02-26T08:51:08;6.93;;;1.77;;
9948;SDS011;5013;51.840;8.276;2023-02-26T08:53:34;4.30;;;2.17;;
9948;SDS011;5013;51.840;8.276;2023-02-26T08:55:59;4.13;;;1.70;;
9948;SDS011;5013;51.840;8.276;2023-02-26T08:58:25;3.73;;;2.60;;
9948;SDS011;5013;51.840;8.276;2023-02-26T09:00:50;6.60;;;3.07;;
9948;SDS011;5013;51.840;8.276;2023-02-26T09:03:16;3.67;;;1.90;;
9948;SDS011;5013;51.840;8.276;2023-02-26T09:05:41;3.93;;;2.03;;
9948;SDS011;5013;51.840;8.276;2023-02-26T09:08:07;4.60;;;2.77;;
9948;SDS011;5013;51.840;8.276;2023-02-26T09:10:33;5.40;;;1.77;;
9948;SDS011;5013;51.840;8.276;2023-02-26T09:12:59;3.77;;;1.70;;
9948;SDS011;5013;51.840;8.276;2023-02-26T09:15:25;4.93;;;1.80;;
9948;SDS011;5013;51.840;8.276;2023-02-26T09:17:50;5.67;;;2.80;;
9948;SDS011;5013;51.840;8.276;2023-02-26T09:20:16;5.20;;;1.90;;
9948;SDS011;5013;51.840;8.276;2023-02-26T09:22:42;2.23;;;1.70;;
9948;SDS011;5013;51.840;8.276;2023-02-26T09:25:07;2.53;;;1.80;;
9948;SDS011;5013;51.840;8.276;2023-02-26T09:27:33;2.67;;;1.93;;
9948;SDS011;5013;51.840;8.276;2023-02-26T09:30:00;4.90;;;1.90;;
9948;SDS011;5013;51.840;8.276;2023-02-26T09:32:26;4.27;;;2.13;;
9948;SDS011;5013;51.840;8.276;2023-02-26T09:34:52;4.57;;;1.70;;
9948;SDS011;5013;51.840;8.276;2023-02-26T09:37:17;3.83;;;1.70;;
9948;SDS011;5013;51.840;8.276;2023-02-26T09:39:43;3.13;;;1.80;;
9948;SDS011;5013;51.840;8.276;2023-02-26T09:42:21;3.93;;;2.00;;
9948;SDS011;5013;51.840;8.276;2023-02-26T09:44:48;1.77;;;1.67;;
9948;SDS011;5013;51.840;8.276;2023-02-26T09:47:21;5.10;;;1.70;;
9948;SDS011;5013;51.840;8.276;2023-02-26T09:53:00;3.43;;;1.80;;
9948;SDS011;5013;51.840;8.276;2023-02-26T09:55:31;2.93;;;1.63;;
9948;SDS011;5013;51.840;8.276;2023-02-26T09:58:03;1.80;;;1.70;;
9948;SDS011;5013;51.840;8.276;2023-02-26T10:08:16;2.80;;;1.63;;
9948;SDS011;5013;51.840;8.276;2023-02-26T10:13:51;3.20;;;1.60;;
9948;SDS011;5013;51.840;8.276;2023-02-26T10:16:21;4.60;;;2.00;;
9948;SDS011;5013;51.840;8.276;2023-02-26T10:21:58;3.83;;;1.50;;
9948;SDS011;5013;51.840;8.276;2023-02-26T10:24:44;2.40;;;1.30;;
9948;SDS011;5013;51.840;8.276;2023-02-26T10:27:17;1.97;;;1.70;;
9948;SDS011;5013;51.840;8.276;2023-02-26T10:33:17;3.03;;;1.40;;
9948;SDS011;5013;51.840;8.276;2023-02-26T10:35:46;2.17;;;1.23;;
9948;SDS011;5013;51.840;8.276;2023-02-26T10:38:17;2.73;;;1.30;;
9948;SDS011;5013;51.840;8.276;2023-02-26T10:41:01;3.10;;;1.20;;
9948;SDS011;5013;51.840;8.276;2023-02-26T10:51:35;1.67;;;1.30;;
9948;SDS011;5013;51.840;8.276;2023-02-26T10:56:33;1.30;;;1.20;;
9948;SDS011;5013;51.840;8.276;2023-02-26T10:58:59;1.63;;;1.30;;
9948;SDS011;5013;51.840;8.276;2023-02-26T11:01:26;2.80;;;1.10;;
9948;SDS011;5013;51.840;8.276;2023-02-26T11:03:57;5.70;;;1.57;;
9948;SDS011;5013;51.840;8.276;2023-02-26T11:06:27;3.03;;;1.10;;
9948;SDS011;5013;51.840;8.276;2023-02-26T11:08:57;2.53;;;1.00;;
9948;SDS011;5013;51.840;8.276;2023-02-26T11:14:05;2.63;;;1.00;;
9948;SDS011;5013;51.840;8.276;2023-02-26T11:16:32;2.67;;;1.20;;
9948;SDS011;5013;51.840;8.276;2023-02-26T11:18:59;1.30;;;1.20;;
9948;SDS011;5013;51.840;8.276;2023-02-26T11:21:32;2.03;;;1.17;;
9948;SDS011;5013;51.840;8.276;2023-02-26T11:24:06;6.30;;;1.87;;
9948;SDS011;5013;51.840;8.276;2023-02-26T11:26:53;4.00;;;1.10;;
9948;SDS011;5013;51.840;8.276;2023-02-26T11:29:20;1.30;;;1.20;;
9948;SDS011;5013;51.840;8.276;2023-02-26T11:31:52;2.53;;;1.47;;
9948;SDS011;5013;51.840;8.276;2023-02-26T11:34:23;2.37;;;1.33;;
9948;SDS011;5013;51.840;8.276;2023-02-26T11:36:50;1.60;;;1.13;;
9948;SDS011;5013;51.840;8.276;2023-02-26T11:41:47;2.33;;;1.23;;
9948;SDS011;5013;51.840;8.276;2023-02-26T11:44:15;2.43;;;1.50;;
9948;SDS011;5013;51.840;8.276;2023-02-26T11:46:48;2.57;;;1.40;;
9948;SDS011;5013;51.840;8.276;2023-02-26T11:49:17;1.77;;;1.30;;
9948;SDS011;5013;51.840;8.276;2023-02-26T11:51:47;1.50;;;1.20;;
9948;SDS011;5013;51.840;8.276;2023-02-26T11:54:26;3.23;;;2.33;;
9948;SDS011;5013;51.840;8.276;2023-02-26T11:57:00;2.20;;;1.40;;
9948;SDS011;5013;51.840;8.276;2023-02-26T11:59:29;1.90;;;1.40;;
9948;SDS011;5013;51.840;8.276;2023-02-26T12:01:56;2.80;;;1.10;;
9948;SDS011;5013;51.840;8.276;2023-02-26T12:04:27;3.10;;;1.40;;
9948;SDS011;5013;51.840;8.276;2023-02-26T12:06:55;2.40;;;1.47;;
9948;SDS011;5013;51.840;8.276;2023-02-26T12:09:21;2.10;;;1.40;;
9948;SDS011;5013;51.840;8.276;2023-02-26T12:22:41;2.77;;;1.30;;
9948;SDS011;5013;51.840;8.276;2023-02-26T12:25:32;2.13;;;1.20;;
9948;SDS011;5013;51.840;8.276;2023-02-26T12:31:13;1.80;;;1.20;;
9948;SDS011;5013;51.840;8.276;2023-02-26T12:36:30;2.97;;;1.30;;
9948;SDS011;5013;51.840;8.276;2023-02-26T12:39:05;3.70;;;1.50;;
9948;SDS011;5013;51.840;8.276;2023-02-26T13:12:12;7.63;;;3.97;;
9948;SDS011;5013;51.840;8.276;2023-02-26T13:17:23;1.30;;;1.23;;
9948;SDS011;5013;51.840;8.276;2023-02-26T13:19:55;2.97;;;1.47;;
9948;SDS011;5013;51.840;8.276;2023-02-26T13:22:35;1.70;;;1.37;;
9948;SDS011;5013;51.840;8.276;2023-02-26T13:25:08;1.30;;;1.20;;
9948;SDS011;5013;51.840;8.276;2023-02-26T13:28:01;4.00;;;1.47;;
9948;SDS011;5013;51.840;8.276;2023-02-26T13:30:42;2.03;;;1.40;;
9948;SDS011;5013;51.840;8.276;2023-02-26T13:33:20;1.53;;;1.33;;
9948;SDS011;5013;51.840;8.276;2023-02-26T13:35:50;1.10;;;1.10;;
9948;SDS011;5013;51.840;8.276;2023-02-26T13:38:22;1.33;;;1.17;;
9948;SDS011;5013;51.840;8.276;2023-02-26T13:49:19;2.37;;;1.77;;
9948;SDS011;5013;51.840;8.276;2023-02-26T13:51:55;2.90;;;1.60;;
9948;SDS011;5013;51.840;8.276;2023-02-26T13:54:41;1.23;;;1.20;;
9948;SDS011;5013;51.840;8.276;2023-02-26T13:57:25;2.13;;;1.30;;
9948;SDS011;5013;51.840;8.276;2023-02-26T14:00:07;5.43;;;2.27;;
9948;SDS011;5013;51.840;8.276;2023-02-26T14:02:56;5.10;;;2.67;;
9948;SDS011;5013;51.840;8.276;2023-02-26T14:10:43;2.30;;;1.33;;
9948;SDS011;5013;51.840;8.276;2023-02-26T14:16:02;1.50;;;1.30;;
9948;SDS011;5013;51.840;8.276;2023-02-26T14:23:57;1.53;;;1.43;;
9948;SDS011;5013;51.840;8.276;2023-02-26T14:26:26;1.63;;;1.53;;
9948;SDS011;5013;51.840;8.276;2023-02-26T14:34:22;3.63;;;1.90;;
9948;SDS011;5013;51.840;8.276;2023-02-26T14:36:51;3.70;;;1.73;;
9948;SDS011;5013;51.840;8.276;2023-02-26T14:39:24;2.53;;;1.73;;
9948;SDS011;5013;51.840;8.276;2023-02-26T14:42:10;3.53;;;2.10;;
9948;SDS011;5013;51.840;8.276;2023-02-26T14:44:42;5.17;;;2.40;;
9948;SDS011;5013;51.840;8.276;2023-02-26T14:47:12;1.70;;;1.60;;
9948;SDS011;5013;51.840;8.276;2023-02-26T14:49:39;2.77;;;2.17;;
9948;SDS011;5013;51.840;8.276;2023-02-26T15:04:11;2.97;;;1.30;;
9948;SDS011;5013;51.840;8.276;2023-02-26T15:07:02;2.40;;;1.60;;
9948;SDS011;5013;51.840;8.276;2023-02-26T15:21:07;2.77;;;1.83;;
9948;SDS011;5013;51.840;8.276;2023-02-26T15:23:47;4.60;;;2.60;;
9948;SDS011;5013;51.840;8.276;2023-02-26T15:26:18;2.40;;;1.67;;
9948;SDS011;5013;51.840;8.276;2023-02-26T15:28:48;3.37;;;2.00;;
9948;SDS011;5013;51.840;8.276;2023-02-26T15:31:17;2.43;;;1.90;;
9948;SDS011;5013;51.840;8.276;2023-02-26T15:33:48;1.57;;;1.47;;
9948;SDS011;5013;51.840;8.276;2023-02-26T15:36:15;1.70;;;1.60;;
9948;SDS011;5013;51.840;8.276;2023-02-26T15:38:47;3.03;;;2.40;;
9948;SDS011;5013;51.840;8.276;2023-02-26T15:41:14;1.57;;;1.47;;
9948;SDS011;5013;51.840;8.276;2023-02-26T15:43:43;2.47;;;1.40;;
9948;SDS011;5013;51.840;8.276;2023-02-26T15:46:13;1.13;;;1.13;;
9948;SDS011;5013;51.840;8.276;2023-02-26T15:48:40;5.30;;;3.03;;
9948;SDS011;5013;51.840;8.276;2023-02-26T15:51:07;7.47;;;2.60;;
9948;SDS011;5013;51.840;8.276;2023-02-26T15:54:09;1.83;;;1.73;;
9948;SDS011;5013;51.840;8.276;2023-02-26T15:56:35;2.50;;;2.30;;
9948;SDS011;5013;51.840;8.276;2023-02-26T15:59:05;1.53;;;1.50;;
9948;SDS011;5013;51.840;8.276;2023-02-26T16:01:34;4.07;;;3.00;;
9948;SDS011;5013;51.840;8.276;2023-02-26T16:04:01;3.27;;;1.70;;
9948;SDS011;5013;51.840;8.276;2023-02-26T16:08:59;1.87;;;1.63;;
9948;SDS011;5013;51.840;8.276;2023-02-26T16:11:30;3.83;;;1.67;;
9948;SDS011;5013;51.840;8.276;2023-02-26T16:13:59;3.63;;;2.13;;
9948;SDS011;5013;51.840;8.276;2023-02-26T16:16:26;2.37;;;2.17;;
9948;SDS011;5013;51.840;8.276;2023-02-26T16:18:58;3.80;;;1.67;;
9948;SDS011;5013;51.840;8.276;2023-02-26T16:21:28;1.47;;;1.33;;
9948;SDS011;5013;51.840;8.276;2023-02-26T16:23:57;4.60;;;1.80;;
9948;SDS011;5013;51.840;8.276;2023-02-26T16:26:29;1.63;;;1.50;;
9948;SDS011;5013;51.840;8.276;2023-02-26T16:28:59;1.30;;;1.30;;
9948;SDS011;5013;51.840;8.276;2023-02-26T16:31:27;2.80;;;1.90;;
9948;SDS011;5013;51.840;8.276;2023-02-26T16:34:01;4.77;;;2.30;;
9948;SDS011;5013;51.840;8.276;2023-02-26T16:36:30;4.97;;;3.20;;
9948;SDS011;5013;51.840;8.276;2023-02-26T16:41:34;7.53;;;3.87;;
9948;SDS011;5013;51.840;8.276;2023-02-26T16:44:03;6.23;;;3.40;;
9948;SDS011;5013;51.840;8.276;2023-02-26T16:46:53;1.80;;;1.70;;
9948;SDS011;5013;51.840;8.276;2023-02-26T16:49:26;3.67;;;2.50;;
9948;SDS011;5013;51.840;8.276;2023-02-26T16:51:55;2.40;;;2.20;;
9948;SDS011;5013;51.840;8.276;2023-02-26T16:54:23;2.40;;;2.20;;
9948;SDS011;5013;51.840;8.276;2023-02-26T16:57:15;2.00;;;1.90;;
9948;SDS011;5013;51.840;8.276;2023-02-26T16:59:41;2.10;;;1.90;;
9948;SDS011;5013;51.840;8.276;2023-02-26T17:02:14;3.93;;;2.27;;
9948;SDS011;5013;51.840;8.276;2023-02-26T17:04:48;3.60;;;1.80;;
9948;SDS011;5013;51.840;8.276;2023-02-26T17:07:25;2.37;;;2.17;;
9948;SDS011;5013;51.840;8.276;2023-02-26T17:09:55;3.40;;;2.80;;
9948;SDS011;5013;51.840;8.276;2023-02-26T17:12:50;3.07;;;2.40;;
9948;SDS011;5013;51.840;8.276;2023-02-26T17:15:26;2.90;;;2.60;;
9948;SDS011;5013;51.840;8.276;2023-02-26T17:17:53;2.00;;;1.90;;
9948;SDS011;5013;51.840;8.276;2023-02-26T17:20:22;2.10;;;2.00;;
9948;SDS011;5013;51.840;8.276;2023-02-26T17:22:52;3.60;;;2.00;;
9948;SDS011;5013;51.840;8.276;2023-02-26T17:25:19;2.33;;;2.20;;
9948;SDS011;5013;51.840;8.276;2023-02-26T17:27:45;2.83;;;2.33;;
9948;SDS011;5013;51.840;8.276;2023-02-26T17:30:14;2.30;;;1.90;;
9948;SDS011;5013;51.840;8.276;2023-02-26T17:32:41;3.23;;;2.60;;
9948;SDS011;5013;51.840;8.276;2023-02-26T17:35:07;4.10;;;2.30;;
9948;SDS011;5013;51.840;8.276;2023-02-26T17:37:35;5.23;;;3.93;;
9948;SDS011;5013;51.840;8.276;2023-02-26T17:40:02;4.83;;;3.73;;
9948;SDS011;5013;51.840;8.276;2023-02-26T17:42:29;6.53;;;3.70;;
9948;SDS011;5013;51.840;8.276;2023-02-26T17:44:54;5.50;;;3.47;;
9948;SDS011;5013;51.840;8.276;2023-02-26T17:47:22;5.50;;;3.77;;
9948;SDS011;5013;51.840;8.276;2023-02-26T17:49:50;3.30;;;3.00;;
9948;SDS011;5013;51.840;8.276;2023-02-26T17:52:16;4.87;;;3.50;;
9948;SDS011;5013;51.840;8.276;2023-02-26T17:54:42;4.67;;;4.00;;
9948;SDS011;5013;51.840;8.276;2023-02-26T17:57:08;3.37;;;3.07;;
9948;SDS011;5013;51.840;8.276;2023-02-26T17:59:44;2.90;;;2.07;;
9948;SDS011;5013;51.840;8.276;2023-02-26T18:02:16;3.10;;;2.30;;
9948;SDS011;5013;51.840;8.276;2023-02-26T18:04:45;4.67;;;4.00;;
9948;SDS011;5013;51.840;8.276;2023-02-26T18:07:12;4.07;;;3.33;;
9948;SDS011;5013;51.840;8.276;2023-02-26T18:09:43;5.80;;;5.07;;
9948;SDS011;5013;51.840;8.276;2023-02-26T18:12:13;5.00;;;4.53;;
9948;SDS011;5013;51.840;8.276;2023-02-26T18:14:44;4.93;;;4.20;;
9948;SDS011;5013;51.840;8.276;2023-02-26T18:17:13;4.23;;;2.80;;
9948;SDS011;5013;51.840;8.276;2023-02-26T18:19:43;5.20;;;3.83;;
9948;SDS011;5013;51.840;8.276;2023-02-26T18:22:13;4.73;;;4.17;;
9948;SDS011;5013;51.840;8.276;2023-02-26T18:24:40;3.40;;;3.20;;
9948;SDS011;5013;51.840;8.276;2023-02-26T18:27:09;4.97;;;4.30;;
9948;SDS011;5013;51.840;8.276;2023-02-26T18:29:43;4.27;;;3.70;;
9948;SDS011;5013;51.840;8.276;2023-02-26T18:32:13;5.83;;;3.67;;